createdAt,value
2017-09-04T00:04:43.031Z,12.07
2017-09-04T00:09:45.673Z,11.50
2017-09-04T00:14:47.412Z,10.97
2017-09-04T00:19:49.076Z,10.10
2017-09-04T00:24:50.700Z,15.83
2017-09-04T00:29:52.375Z,11.80
2017-09-04T00:34:54.076Z,9.40
2017-09-04T00:39:55.722Z,9.17
2017-09-04T00:44:57.396Z,9.73
2017-09-04T00:49:59.097Z,8.40
2017-09-04T00:55:00.763Z,12.20
2017-09-04T01:00:02.466Z,11.07
2017-09-04T01:05:04.066Z,10.20
2017-09-04T01:10:05.680Z,10.43
2017-09-04T01:15:07.328Z,8.70
2017-09-04T01:20:09.032Z,13.13
2017-09-04T01:25:10.664Z,8.47
2017-09-04T01:30:12.332Z,9.97
2017-09-04T01:35:14.004Z,10.00
2017-09-04T01:40:15.578Z,10.70
2017-09-04T01:45:17.250Z,12.30
2017-09-04T01:50:18.920Z,9.70
2017-09-04T01:55:20.604Z,10.20
2017-09-04T02:00:22.271Z,9.87
2017-09-04T02:05:23.932Z,11.50
2017-09-04T02:10:25.698Z,8.67
2017-09-04T02:15:27.352Z,9.97
2017-09-04T02:20:29.024Z,8.83
2017-09-04T02:25:30.697Z,7.63
2017-09-04T02:30:32.369Z,6.93
2017-09-04T02:35:34.013Z,8.47
2017-09-04T02:40:50.655Z,9.87
2017-09-04T02:46:06.917Z,10.37
2017-09-04T02:51:23.463Z,8.90
2017-09-04T02:56:41.630Z,10.27
2017-09-04T03:01:58.150Z,15.60
2017-09-04T03:07:14.763Z,13.73
2017-09-04T03:12:31.113Z,10.70
2017-09-04T03:17:43.655Z,9.63
2017-09-04T03:22:45.398Z,10.53
2017-09-04T03:27:47.123Z,10.27
2017-09-04T03:32:49.294Z,13.00
2017-09-04T03:37:51.260Z,10.00
2017-09-04T03:42:54.775Z,9.80
2017-09-04T03:47:56.633Z,10.43
2017-09-04T03:52:58.532Z,10.07
2017-09-04T03:58:00.613Z,10.83
2017-09-04T04:03:02.464Z,9.83
2017-09-04T04:08:04.366Z,10.60
2017-09-04T04:13:06.221Z,11.73
2017-09-04T04:18:07.918Z,11.87
2017-09-04T04:23:09.590Z,9.90
2017-09-04T04:28:11.476Z,12.70
2017-09-04T04:33:13.141Z,9.33
2017-09-04T04:38:14.792Z,9.20
2017-09-04T04:43:16.537Z,13.07
2017-09-04T04:48:18.200Z,11.67
2017-09-04T04:53:20.896Z,9.87
2017-09-04T04:58:22.562Z,9.10
2017-09-04T05:03:24.236Z,12.13
2017-09-04T05:08:25.940Z,10.63
2017-09-04T05:13:27.683Z,9.97
2017-09-04T05:18:29.364Z,11.87
2017-09-04T05:23:31.076Z,8.47
2017-09-04T05:28:32.732Z,7.07
2017-09-04T05:33:34.517Z,6.53
2017-09-04T05:38:36.275Z,7.17
2017-09-04T05:43:37.921Z,6.20
2017-09-04T05:48:39.601Z,8.90
2017-09-04T05:53:41.292Z,11.37
2017-09-04T05:58:43.036Z,10.13
2017-09-04T06:03:45.700Z,9.80
2017-09-04T06:08:47.319Z,11.63
2017-09-04T06:13:49.799Z,7.63
2017-09-04T06:18:53.188Z,7.63
2017-09-04T06:23:54.775Z,11.83
2017-09-04T06:28:57.385Z,9.07
2017-09-04T06:33:59.168Z,11.30
2017-09-04T06:39:00.973Z,9.03
2017-09-04T06:44:02.757Z,8.13
2017-09-04T06:49:05.416Z,7.50
2017-09-04T06:54:07.077Z,7.73
2017-09-04T06:59:08.748Z,7.07
2017-09-04T07:04:11.474Z,8.63
2017-09-04T07:09:13.132Z,8.10
2017-09-04T07:14:14.754Z,9.87
2017-09-04T07:19:16.464Z,9.03
2017-09-04T07:24:18.154Z,10.40
2017-09-04T07:29:19.807Z,8.20
2017-09-04T07:34:21.480Z,9.63
2017-09-04T07:39:23.156Z,10.60
2017-09-04T07:44:24.828Z,10.93
2017-09-04T07:49:26.505Z,10.83
2017-09-04T07:54:28.158Z,9.03
2017-09-04T07:59:29.853Z,9.13
2017-09-04T08:04:31.536Z,9.50
2017-09-04T08:09:33.205Z,9.97
2017-09-04T08:14:34.916Z,10.03
2017-09-04T08:19:36.518Z,11.10
2017-09-04T08:24:39.148Z,11.93
2017-09-04T08:29:40.807Z,13.23
2017-09-04T08:34:42.484Z,11.23
2017-09-04T08:39:44.160Z,9.20
2017-09-04T08:44:45.854Z,13.90
2017-09-04T08:49:47.563Z,11.30
2017-09-04T08:54:49.248Z,9.87
2017-09-04T08:59:50.849Z,10.20
2017-09-04T09:04:52.564Z,9.03
2017-09-04T09:09:54.239Z,12.80
2017-09-04T09:14:57.922Z,9.70
2017-09-04T09:19:59.585Z,8.93
2017-09-04T09:25:01.316Z,10.23
2017-09-04T09:30:02.976Z,8.33
2017-09-04T09:35:05.630Z,8.53
2017-09-04T09:40:07.405Z,8.20
2017-09-04T09:45:09.179Z,12.93
2017-09-04T09:50:10.872Z,8.07
2017-09-04T09:55:12.564Z,9.27
2017-09-04T10:00:14.312Z,9.33
2017-09-04T10:05:16.012Z,15.90
2017-09-04T10:10:17.677Z,12.93
2017-09-04T10:15:19.360Z,9.30
2017-09-04T10:20:21.041Z,7.57
2017-09-04T10:25:22.704Z,9.27
2017-09-04T10:30:24.480Z,9.90
2017-09-04T10:35:26.169Z,7.47
2017-09-04T10:40:27.825Z,7.67
2017-09-04T10:45:29.501Z,6.07
2017-09-04T10:50:31.157Z,5.23
2017-09-04T10:55:32.808Z,4.77
2017-09-04T11:00:36.397Z,5.77
2017-09-04T11:05:39.011Z,5.57
2017-09-04T11:10:40.857Z,6.47
2017-09-04T11:15:42.490Z,4.73
2017-09-04T11:20:44.168Z,4.30
2017-09-04T11:25:45.852Z,5.03
2017-09-04T11:30:47.514Z,5.00
2017-09-04T11:35:49.200Z,4.60
2017-09-04T11:40:50.816Z,4.57
2017-09-04T11:45:52.509Z,3.80
2017-09-04T11:50:54.231Z,5.10
2017-09-04T11:55:55.944Z,5.20
2017-09-04T12:00:57.753Z,5.10
2017-09-04T12:06:00.420Z,4.80
2017-09-04T12:11:02.112Z,5.13
2017-09-04T12:16:03.760Z,4.00
2017-09-04T12:21:05.534Z,5.97
2017-09-04T12:26:07.252Z,4.17
2017-09-04T12:31:08.914Z,4.67
2017-09-04T12:36:10.568Z,4.90
2017-09-04T12:41:12.272Z,17.13
2017-09-04T12:46:13.908Z,4.20
2017-09-04T12:51:15.580Z,3.57
2017-09-04T12:56:18.687Z,3.90
2017-09-04T13:01:20.348Z,4.97
2017-09-04T13:06:22.332Z,4.20
2017-09-04T13:11:26.869Z,4.57
2017-09-04T13:16:34.649Z,4.90
2017-09-04T13:21:42.289Z,4.07
2017-09-04T13:26:49.928Z,3.60
2017-09-04T13:31:57.694Z,4.40
2017-09-04T13:47:51.124Z,5.00
2017-09-04T13:52:58.880Z,3.90
2017-09-04T13:58:06.488Z,8.90
2017-09-04T14:03:28.889Z,3.43
2017-09-04T14:08:36.596Z,4.80
2017-09-04T14:13:47.178Z,3.73
2017-09-04T14:18:48.996Z,4.80
2017-09-04T14:23:50.624Z,5.63
2017-09-04T14:28:52.314Z,11.77
2017-09-04T14:33:53.985Z,4.50
2017-09-04T14:38:55.664Z,2.80
2017-09-04T14:44:12.223Z,3.90
2017-09-04T14:49:13.939Z,3.37
2017-09-04T14:54:15.611Z,2.83
2017-09-04T14:59:17.333Z,3.10
2017-09-04T15:04:19.956Z,3.40
2017-09-04T15:09:21.568Z,3.40
2017-09-04T15:14:23.246Z,3.63
2017-09-04T15:19:24.910Z,3.90
2017-09-04T15:24:26.601Z,4.60
2017-09-04T15:29:28.252Z,7.97
2017-09-04T15:34:31.185Z,3.47
2017-09-04T15:39:32.946Z,5.60
2017-09-04T15:44:34.619Z,3.70
2017-09-04T15:49:36.396Z,3.20
2017-09-04T15:54:38.068Z,3.10
2017-09-04T15:59:39.730Z,4.80
2017-09-04T16:04:41.509Z,4.23
2017-09-04T16:09:43.240Z,3.73
2017-09-04T16:14:46.836Z,4.77
2017-09-04T16:19:48.413Z,4.93
2017-09-04T16:24:50.140Z,6.00
2017-09-04T16:29:55.953Z,5.47
2017-09-04T16:34:59.746Z,5.53
2017-09-04T16:40:01.509Z,3.67
2017-09-04T16:45:05.192Z,8.63
2017-09-04T16:50:07.985Z,6.27
2017-09-04T16:55:10.718Z,4.53
2017-09-04T17:00:13.420Z,5.30
2017-09-04T17:05:16.117Z,5.40
2017-09-04T17:10:18.547Z,4.30
2017-09-04T17:15:26.072Z,5.10
2017-09-04T17:20:27.726Z,4.20
2017-09-04T17:25:31.437Z,7.10
2017-09-04T17:30:33.042Z,5.30
2017-09-04T17:35:34.736Z,4.53
2017-09-04T17:40:36.416Z,5.53
2017-09-04T17:45:38.249Z,7.20
2017-09-04T17:50:39.873Z,7.07
2017-09-04T17:55:41.544Z,7.00
2017-09-04T18:00:43.235Z,6.47
2017-09-04T18:05:44.880Z,17.67
2017-09-04T18:10:46.534Z,5.80
2017-09-04T18:15:48.214Z,10.00
2017-09-04T18:20:49.913Z,5.83
2017-09-04T18:25:51.596Z,5.33
2017-09-04T18:30:53.259Z,5.73
2017-09-04T18:35:56.648Z,5.07
2017-09-04T18:41:03.902Z,7.73
2017-09-04T18:46:06.110Z,8.50
2017-09-04T18:51:07.961Z,7.30
2017-09-04T18:56:09.592Z,7.00
2017-09-04T19:01:12.287Z,6.00
2017-09-04T19:06:14.001Z,9.67
2017-09-04T19:11:16.281Z,6.60
2017-09-04T19:16:19.177Z,5.50
2017-09-04T19:21:21.952Z,6.03
2017-09-04T19:26:24.890Z,3.83
2017-09-04T19:31:27.228Z,6.80
2017-09-04T19:36:29.261Z,5.17
2017-09-04T19:41:31.110Z,7.83
2017-09-04T19:46:41.972Z,4.70
2017-09-04T19:51:44.417Z,6.27
2017-09-04T19:56:46.293Z,4.20
2017-09-04T20:01:48.171Z,5.03
2017-09-04T20:06:49.832Z,5.10
2017-09-04T20:11:51.723Z,5.13
2017-09-04T20:16:53.572Z,6.73
2017-09-04T20:21:55.880Z,5.27
2017-09-04T20:26:58.583Z,7.00
2017-09-04T20:32:00.338Z,5.07
2017-09-04T20:37:02.004Z,6.90
2017-09-04T20:42:03.678Z,6.77
2017-09-04T20:47:06.401Z,5.33
2017-09-04T20:52:08.258Z,5.03
2017-09-04T20:57:09.909Z,6.50
2017-09-04T21:02:11.827Z,6.13
2017-09-04T21:07:13.705Z,5.30
2017-09-04T21:12:15.557Z,5.80
2017-09-04T21:17:18.284Z,5.60
2017-09-04T21:22:20.128Z,6.60
2017-09-04T21:27:22.470Z,5.00
2017-09-04T21:32:24.704Z,4.73
2017-09-04T21:37:27.224Z,7.93
2017-09-04T21:42:29.101Z,4.80
2017-09-04T21:47:31.414Z,5.47
2017-09-04T21:52:33.037Z,3.80
2017-09-04T21:57:35.342Z,8.30
2017-09-04T22:02:37.020Z,8.53
2017-09-04T22:07:39.316Z,4.90
2017-09-04T22:12:41.082Z,5.20
2017-09-04T22:17:42.756Z,4.17
2017-09-04T22:22:44.433Z,3.53
2017-09-04T22:27:46.062Z,4.80
2017-09-04T22:32:47.977Z,4.07
2017-09-04T22:37:49.650Z,3.60
2017-09-04T22:42:52.354Z,6.30
2017-09-04T22:47:54.087Z,4.07
2017-09-04T22:52:56.718Z,3.30
2017-09-04T22:57:58.594Z,5.17
2017-09-04T23:03:01.906Z,6.50
2017-09-04T23:08:03.544Z,6.43
2017-09-04T23:13:07.298Z,3.90
2017-09-04T23:18:08.972Z,6.83
2017-09-04T23:23:11.424Z,5.00
2017-09-04T23:28:13.095Z,4.87
2017-09-04T23:33:17.062Z,6.13
2017-09-04T23:38:18.693Z,5.80
2017-09-04T23:43:24.930Z,5.07
2017-09-04T23:48:26.584Z,3.93
2017-09-04T23:53:28.808Z,7.47
2017-09-04T23:58:30.751Z,6.20
